Terminal Aerodrome Forecast
Issued by NWS

Home | Current Version | Previous Version | Text Only | Print | Product List | Glossary On
Versions: 1 2 3 4 5 6 7 8 9 10 11 12 13 14 15 16 17 18 19 20 21 22 23 24 25 26 27 28 29 30 31 32 33 34 35 36 37 38 39 40 41 42 43 44 45 46 47 48 49 50
000
FTUS41 KOKX 190008 RRA
TAFSWF
TAF
KSWF 190008Z 1900/2006 11005KT 6SM BR OVC009
     FM190200 VRB04KT 6SM BR SCT150
     FM191000 22008KT 5SM BR OVC010
     FM191200 22011KT P6SM OVC010 PROB30 1912/1918 -SHRA
     FM191800 20014G20KT 4SM BR OVC010 PROB30 1918/1924 -SHRA OVC007
     FM200000 19018G24KT 3SM -SHRA BR OVC010
     AMD NOT SKED=

USA.gov is the U.S. government's official web portal to all federal, state and local government web resources and services.